sensor_id;sensor_type;location;lat;lon;timestamp;P1;durP1;ratioP1;P2;durP2;ratioP2
8857;SDS011;4465;50.904;4.696;2024-02-28T00:00:45;20.15;;;9.30;;
8857;SDS011;4465;50.904;4.696;2024-02-28T00:03:11;23.90;;;10.05;;
8857;SDS011;4465;50.904;4.696;2024-02-28T00:05:40;19.60;;;9.77;;
8857;SDS011;4465;50.904;4.696;2024-02-28T00:08:06;25.77;;;8.98;;
8857;SDS011;4465;50.904;4.696;2024-02-28T00:10:32;18.75;;;8.48;;
8857;SDS011;4465;50.904;4.696;2024-02-28T00:12:58;19.67;;;8.35;;
8857;SDS011;4465;50.904;4.696;2024-02-28T00:15:25;17.88;;;8.57;;
8857;SDS011;4465;50.904;4.696;2024-02-28T00:17:55;18.80;;;8.00;;
8857;SDS011;4465;50.904;4.696;2024-02-28T00:20:21;21.52;;;8.85;;
8857;SDS011;4465;50.904;4.696;2024-02-28T00:22:52;17.23;;;8.77;;
8857;SDS011;4465;50.904;4.696;2024-02-28T00:25:23;17.45;;;8.23;;
8857;SDS011;4465;50.904;4.696;2024-02-28T00:27:49;23.25;;;8.50;;
8857;SDS011;4465;50.904;4.696;2024-02-28T00:30:15;17.90;;;7.97;;
8857;SDS011;4465;50.904;4.696;2024-02-28T00:32:42;18.98;;;7.93;;
8857;SDS011;4465;50.904;4.696;2024-02-28T00:35:08;15.80;;;7.43;;
8857;SDS011;4465;50.904;4.696;2024-02-28T00:37:34;20.98;;;8.27;;
8857;SDS011;4465;50.904;4.696;2024-02-28T00:39:59;19.58;;;7.63;;
8857;SDS011;4465;50.904;4.696;2024-02-28T00:42:25;16.80;;;7.90;;
8857;SDS011;4465;50.904;4.696;2024-02-28T00:44:52;20.90;;;9.48;;
8857;SDS011;4465;50.904;4.696;2024-02-28T00:47:18;19.70;;;8.75;;
8857;SDS011;4465;50.904;4.696;2024-02-28T00:49:47;20.17;;;8.80;;
8857;SDS011;4465;50.904;4.696;2024-02-28T00:52:13;22.40;;;9.95;;
8857;SDS011;4465;50.904;4.696;2024-02-28T00:54:39;18.38;;;8.95;;
8857;SDS011;4465;50.904;4.696;2024-02-28T00:57:05;23.85;;;9.88;;
8857;SDS011;4465;50.904;4.696;2024-02-28T00:59:30;25.02;;;10.80;;
8857;SDS011;4465;50.904;4.696;2024-02-28T01:01:56;29.08;;;11.85;;
8857;SDS011;4465;50.904;4.696;2024-02-28T01:04:22;28.02;;;12.27;;
8857;SDS011;4465;50.904;4.696;2024-02-28T01:06:51;33.47;;;12.57;;
8857;SDS011;4465;50.904;4.696;2024-02-28T01:09:17;36.17;;;13.45;;
8857;SDS011;4465;50.904;4.696;2024-02-28T01:11:43;33.42;;;14.23;;
8857;SDS011;4465;50.904;4.696;2024-02-28T01:14:09;34.80;;;14.45;;
8857;SDS011;4465;50.904;4.696;2024-02-28T01:16:35;39.55;;;15.65;;
8857;SDS011;4465;50.904;4.696;2024-02-28T01:19:00;40.58;;;14.25;;
8857;SDS011;4465;50.904;4.696;2024-02-28T01:21:29;33.22;;;15.13;;
8857;SDS011;4465;50.904;4.696;2024-02-28T01:23:55;35.40;;;15.32;;
8857;SDS011;4465;50.904;4.696;2024-02-28T01:26:20;32.85;;;14.18;;
8857;SDS011;4465;50.904;4.696;2024-02-28T01:28:48;34.25;;;15.27;;
8857;SDS011;4465;50.904;4.696;2024-02-28T01:31:16;36.35;;;13.77;;
8857;SDS011;4465;50.904;4.696;2024-02-28T01:33:45;38.92;;;15.18;;
8857;SDS011;4465;50.904;4.696;2024-02-28T01:36:11;36.25;;;15.02;;
8857;SDS011;4465;50.904;4.696;2024-02-28T01:38:40;39.72;;;15.80;;
8857;SDS011;4465;50.904;4.696;2024-02-28T01:41:05;41.30;;;15.75;;
8857;SDS011;4465;50.904;4.696;2024-02-28T01:43:33;41.20;;;16.60;;
8857;SDS011;4465;50.904;4.696;2024-02-28T01:46:03;53.42;;;19.83;;
8857;SDS011;4465;50.904;4.696;2024-02-28T01:48:49;44.22;;;19.13;;
8857;SDS011;4465;50.904;4.696;2024-02-28T01:51:15;50.40;;;19.95;;
8857;SDS011;4465;50.904;4.696;2024-02-28T01:53:44;57.42;;;21.17;;
8857;SDS011;4465;50.904;4.696;2024-02-28T01:56:12;57.03;;;21.60;;
8857;SDS011;4465;50.904;4.696;2024-02-28T01:58:45;58.40;;;21.05;;
8857;SDS011;4465;50.904;4.696;2024-02-28T02:01:15;55.78;;;22.50;;
8857;SDS011;4465;50.904;4.696;2024-02-28T02:03:45;58.08;;;23.60;;
8857;SDS011;4465;50.904;4.696;2024-02-28T02:06:11;56.90;;;22.20;;
8857;SDS011;4465;50.904;4.696;2024-02-28T02:08:37;59.78;;;22.90;;
8857;SDS011;4465;50.904;4.696;2024-02-28T02:11:08;60.42;;;23.58;;
8857;SDS011;4465;50.904;4.696;2024-02-28T02:13:47;62.22;;;22.23;;
8857;SDS011;4465;50.904;4.696;2024-02-28T02:16:14;58.50;;;22.95;;
8857;SDS011;4465;50.904;4.696;2024-02-28T02:18:42;54.83;;;22.25;;
8857;SDS011;4465;50.904;4.696;2024-02-28T02:21:08;57.78;;;22.17;;
8857;SDS011;4465;50.904;4.696;2024-02-28T02:23:36;57.97;;;20.92;;
8857;SDS011;4465;50.904;4.696;2024-02-28T02:26:06;59.90;;;23.05;;
8857;SDS011;4465;50.904;4.696;2024-02-28T02:28:35;63.63;;;23.98;;
8857;SDS011;4465;50.904;4.696;2024-02-28T02:31:01;52.17;;;21.23;;
8857;SDS011;4465;50.904;4.696;2024-02-28T02:33:26;61.38;;;22.15;;
8857;SDS011;4465;50.904;4.696;2024-02-28T02:35:54;52.97;;;21.55;;
8857;SDS011;4465;50.904;4.696;2024-02-28T02:38:23;57.72;;;21.17;;
8857;SDS011;4465;50.904;4.696;2024-02-28T02:40:52;55.00;;;21.30;;
8857;SDS011;4465;50.904;4.696;2024-02-28T02:43:18;54.92;;;21.77;;
8857;SDS011;4465;50.904;4.696;2024-02-28T02:45:46;51.58;;;21.85;;
8857;SDS011;4465;50.904;4.696;2024-02-28T02:48:14;58.60;;;22.00;;
8857;SDS011;4465;50.904;4.696;2024-02-28T02:50:40;52.38;;;20.20;;
8857;SDS011;4465;50.904;4.696;2024-02-28T02:53:08;53.47;;;21.65;;
8857;SDS011;4465;50.904;4.696;2024-02-28T02:55:35;54.78;;;22.40;;
8857;SDS011;4465;50.904;4.696;2024-02-28T02:58:04;58.28;;;22.13;;
8857;SDS011;4465;50.904;4.696;2024-02-28T03:00:30;60.90;;;22.95;;
8857;SDS011;4465;50.904;4.696;2024-02-28T03:02:56;51.55;;;20.77;;
8857;SDS011;4465;50.904;4.696;2024-02-28T03:05:22;53.90;;;21.58;;
8857;SDS011;4465;50.904;4.696;2024-02-28T03:07:48;63.97;;;22.60;;
8857;SDS011;4465;50.904;4.696;2024-02-28T03:10:18;54.78;;;21.58;;
8857;SDS011;4465;50.904;4.696;2024-02-28T03:12:44;54.85;;;22.77;;
8857;SDS011;4465;50.904;4.696;2024-02-28T03:15:12;60.90;;;22.10;;
8857;SDS011;4465;50.904;4.696;2024-02-28T03:17:38;51.85;;;20.15;;
8857;SDS011;4465;50.904;4.696;2024-02-28T03:20:04;56.15;;;22.10;;
8857;SDS011;4465;50.904;4.696;2024-02-28T03:22:33;54.60;;;20.85;;
8857;SDS011;4465;50.904;4.696;2024-02-28T03:25:01;52.55;;;21.50;;
8857;SDS011;4465;50.904;4.696;2024-02-28T03:27:27;50.28;;;20.30;;
8857;SDS011;4465;50.904;4.696;2024-02-28T03:29:55;57.67;;;21.48;;
8857;SDS011;4465;50.904;4.696;2024-02-28T03:32:23;60.60;;;21.05;;
8857;SDS011;4465;50.904;4.696;2024-02-28T03:34:49;55.33;;;22.10;;
8857;SDS011;4465;50.904;4.696;2024-02-28T03:37:15;57.38;;;21.92;;
8857;SDS011;4465;50.904;4.696;2024-02-28T03:39:40;63.53;;;21.63;;
8857;SDS011;4465;50.904;4.696;2024-02-28T03:42:09;56.25;;;21.08;;
8857;SDS011;4465;50.904;4.696;2024-02-28T03:44:37;59.30;;;22.25;;
8857;SDS011;4465;50.904;4.696;2024-02-28T03:47:05;55.60;;;21.25;;
8857;SDS011;4465;50.904;4.696;2024-02-28T03:49:34;54.65;;;20.42;;
8857;SDS011;4465;50.904;4.696;2024-02-28T03:52:02;49.85;;;20.00;;
8857;SDS011;4465;50.904;4.696;2024-02-28T03:54:31;54.78;;;21.70;;
8857;SDS011;4465;50.904;4.696;2024-02-28T03:56:57;56.05;;;21.27;;
8857;SDS011;4465;50.904;4.696;2024-02-28T03:59:27;62.78;;;20.77;;
8857;SDS011;4465;50.904;4.696;2024-02-28T04:01:54;51.50;;;20.77;;
8857;SDS011;4465;50.904;4.696;2024-02-28T04:04:25;53.30;;;22.42;;
8857;SDS011;4465;50.904;4.696;2024-02-28T04:06:53;56.58;;;21.08;;
8857;SDS011;4465;50.904;4.696;2024-02-28T04:09:19;57.28;;;21.95;;
8857;SDS011;4465;50.904;4.696;2024-02-28T04:11:47;56.22;;;21.55;;
8857;SDS011;4465;50.904;4.696;2024-02-28T04:14:16;55.40;;;21.98;;
8857;SDS011;4465;50.904;4.696;2024-02-28T04:16:47;50.42;;;20.40;;
8857;SDS011;4465;50.904;4.696;2024-02-28T04:19:15;56.65;;;21.08;;
8857;SDS011;4465;50.904;4.696;2024-02-28T04:21:44;64.18;;;22.88;;
8857;SDS011;4465;50.904;4.696;2024-02-28T04:24:10;55.33;;;21.75;;
8857;SDS011;4465;50.904;4.696;2024-02-28T04:26:36;56.95;;;21.70;;
8857;SDS011;4465;50.904;4.696;2024-02-28T04:29:01;60.65;;;21.92;;
8857;SDS011;4465;50.904;4.696;2024-02-28T04:31:33;56.08;;;20.70;;
8857;SDS011;4465;50.904;4.696;2024-02-28T04:34:03;60.15;;;21.80;;
8857;SDS011;4465;50.904;4.696;2024-02-28T04:36:32;50.50;;;22.17;;
8857;SDS011;4465;50.904;4.696;2024-02-28T04:39:00;55.08;;;23.05;;
8857;SDS011;4465;50.904;4.696;2024-02-28T04:41:27;55.05;;;22.05;;
8857;SDS011;4465;50.904;4.696;2024-02-28T04:43:55;51.75;;;20.88;;
8857;SDS011;4465;50.904;4.696;2024-02-28T04:46:21;59.67;;;21.75;;
8857;SDS011;4465;50.904;4.696;2024-02-28T04:48:50;50.30;;;20.33;;
8857;SDS011;4465;50.904;4.696;2024-02-28T04:51:20;49.63;;;20.33;;
8857;SDS011;4465;50.904;4.696;2024-02-28T04:53:51;58.40;;;20.67;;
8857;SDS011;4465;50.904;4.696;2024-02-28T04:56:19;53.58;;;21.02;;
8857;SDS011;4465;50.904;4.696;2024-02-28T04:58:45;53.80;;;21.58;;
8857;SDS011;4465;50.904;4.696;2024-02-28T05:01:11;62.80;;;21.77;;
8857;SDS011;4465;50.904;4.696;2024-02-28T05:03:39;51.53;;;20.65;;
8857;SDS011;4465;50.904;4.696;2024-02-28T05:06:05;57.17;;;20.70;;
8857;SDS011;4465;50.904;4.696;2024-02-28T05:08:34;55.35;;;20.48;;
8857;SDS011;4465;50.904;4.696;2024-02-28T05:11:03;56.35;;;22.13;;
8857;SDS011;4465;50.904;4.696;2024-02-28T05:13:29;44.58;;;18.73;;
8857;SDS011;4465;50.904;4.696;2024-02-28T05:15:57;52.22;;;18.00;;
8857;SDS011;4465;50.904;4.696;2024-02-28T05:18:23;45.83;;;18.17;;
8857;SDS011;4465;50.904;4.696;2024-02-28T05:20:48;55.45;;;20.02;;
8857;SDS011;4465;50.904;4.696;2024-02-28T05:23:14;51.05;;;19.33;;
8857;SDS011;4465;50.904;4.696;2024-02-28T05:25:40;56.35;;;20.33;;
8857;SDS011;4465;50.904;4.696;2024-02-28T05:28:06;53.10;;;20.42;;
8857;SDS011;4465;50.904;4.696;2024-02-28T05:30:34;49.92;;;19.13;;
8857;SDS011;4465;50.904;4.696;2024-02-28T05:33:02;44.58;;;19.67;;
8857;SDS011;4465;50.904;4.696;2024-02-28T05:35:29;55.03;;;19.17;;
8857;SDS011;4465;50.904;4.696;2024-02-28T05:37:57;55.25;;;21.40;;
8857;SDS011;4465;50.904;4.696;2024-02-28T05:40:27;54.17;;;19.23;;
8857;SDS011;4465;50.904;4.696;2024-02-28T05:42:53;46.78;;;19.67;;
8857;SDS011;4465;50.904;4.696;2024-02-28T05:45:21;56.63;;;19.25;;
8857;SDS011;4465;50.904;4.696;2024-02-28T05:47:47;53.05;;;20.23;;
8857;SDS011;4465;50.904;4.696;2024-02-28T05:50:15;47.50;;;19.42;;
8857;SDS011;4465;50.904;4.696;2024-02-28T05:52:41;50.95;;;19.60;;
8857;SDS011;4465;50.904;4.696;2024-02-28T05:55:12;46.92;;;17.20;;
8857;SDS011;4465;50.904;4.696;2024-02-28T05:57:37;50.55;;;18.73;;
8857;SDS011;4465;50.904;4.696;2024-02-28T06:00:04;47.03;;;18.80;;
8857;SDS011;4465;50.904;4.696;2024-02-28T06:02:38;50.03;;;17.83;;
8857;SDS011;4465;50.904;4.696;2024-02-28T06:05:04;47.92;;;18.17;;
8857;SDS011;4465;50.904;4.696;2024-02-28T06:07:30;46.17;;;18.38;;
8857;SDS011;4465;50.904;4.696;2024-02-28T06:09:56;41.65;;;16.60;;
8857;SDS011;4465;50.904;4.696;2024-02-28T06:12:25;44.22;;;17.10;;
8857;SDS011;4465;50.904;4.696;2024-02-28T06:14:50;38.40;;;15.50;;
8857;SDS011;4465;50.904;4.696;2024-02-28T06:17:23;41.97;;;16.58;;
8857;SDS011;4465;50.904;4.696;2024-02-28T06:19:51;37.95;;;14.88;;
8857;SDS011;4465;50.904;4.696;2024-02-28T06:22:17;39.42;;;16.42;;
8857;SDS011;4465;50.904;4.696;2024-02-28T06:24:44;45.00;;;15.97;;
8857;SDS011;4465;50.904;4.696;2024-02-28T06:27:13;42.95;;;16.10;;
8857;SDS011;4465;50.904;4.696;2024-02-28T06:29:43;39.47;;;16.23;;
8857;SDS011;4465;50.904;4.696;2024-02-28T06:32:09;41.10;;;15.85;;
8857;SDS011;4465;50.904;4.696;2024-02-28T06:34:34;43.25;;;17.38;;
8857;SDS011;4465;50.904;4.696;2024-02-28T06:37:01;45.15;;;17.02;;
8857;SDS011;4465;50.904;4.696;2024-02-28T06:39:29;39.33;;;15.88;;
8857;SDS011;4465;50.904;4.696;2024-02-28T06:41:57;37.65;;;16.40;;
8857;SDS011;4465;50.904;4.696;2024-02-28T06:44:23;46.40;;;17.00;;
8857;SDS011;4465;50.904;4.696;2024-02-28T06:46:49;40.28;;;16.27;;
8857;SDS011;4465;50.904;4.696;2024-02-28T06:49:15;42.38;;;16.13;;
8857;SDS011;4465;50.904;4.696;2024-02-28T06:51:42;49.65;;;16.42;;
8857;SDS011;4465;50.904;4.696;2024-02-28T06:54:09;47.13;;;18.02;;
8857;SDS011;4465;50.904;4.696;2024-02-28T06:56:38;40.55;;;16.75;;
8857;SDS011;4465;50.904;4.696;2024-02-28T06:59:04;46.38;;;16.05;;
8857;SDS011;4465;50.904;4.696;2024-02-28T07:01:32;52.38;;;18.30;;
8857;SDS011;4465;50.904;4.696;2024-02-28T07:04:01;43.33;;;16.15;;
8857;SDS011;4465;50.904;4.696;2024-02-28T07:06:29;44.35;;;16.52;;
8857;SDS011;4465;50.904;4.696;2024-02-28T07:08:58;50.90;;;17.13;;
8857;SDS011;4465;50.904;4.696;2024-02-28T07:11:23;43.78;;;16.70;;
8857;SDS011;4465;50.904;4.696;2024-02-28T07:13:49;44.95;;;15.73;;
8857;SDS011;4465;50.904;4.696;2024-02-28T07:16:15;44.60;;;17.83;;
8857;SDS011;4465;50.904;4.696;2024-02-28T07:18:43;47.90;;;18.25;;
8857;SDS011;4465;50.904;4.696;2024-02-28T07:21:09;51.22;;;18.40;;
8857;SDS011;4465;50.904;4.696;2024-02-28T07:23:40;41.60;;;16.60;;
8857;SDS011;4465;50.904;4.696;2024-02-28T07:26:06;50.72;;;18.35;;
8857;SDS011;4465;50.904;4.696;2024-02-28T07:28:32;55.78;;;19.35;;
8857;SDS011;4465;50.904;4.696;2024-02-28T07:30:58;46.42;;;18.90;;
8857;SDS011;4465;50.904;4.696;2024-02-28T07:33:24;55.33;;;19.75;;
8857;SDS011;4465;50.904;4.696;2024-02-28T07:35:52;49.30;;;18.08;;
8857;SDS011;4465;50.904;4.696;2024-02-28T07:38:22;57.60;;;18.95;;
8857;SDS011;4465;50.904;4.696;2024-02-28T07:40:53;59.80;;;19.63;;
8857;SDS011;4465;50.904;4.696;2024-02-28T07:43:19;54.50;;;19.08;;
8857;SDS011;4465;50.904;4.696;2024-02-28T07:45:44;52.83;;;20.02;;
8857;SDS011;4465;50.904;4.696;2024-02-28T07:48:12;51.10;;;20.08;;
8857;SDS011;4465;50.904;4.696;2024-02-28T07:50:38;54.67;;;19.23;;
8857;SDS011;4465;50.904;4.696;2024-02-28T07:53:09;67.57;;;19.92;;
8857;SDS011;4465;50.904;4.696;2024-02-28T07:55:35;50.80;;;18.30;;
8857;SDS011;4465;50.904;4.696;2024-02-28T07:58:01;63.17;;;17.70;;
8857;SDS011;4465;50.904;4.696;2024-02-28T08:00:27;57.22;;;20.58;;
8857;SDS011;4465;50.904;4.696;2024-02-28T08:02:53;52.83;;;18.40;;
8857;SDS011;4465;50.904;4.696;2024-02-28T08:05:19;54.00;;;19.75;;
8857;SDS011;4465;50.904;4.696;2024-02-28T08:07:48;48.50;;;19.27;;
8857;SDS011;4465;50.904;4.696;2024-02-28T08:10:14;47.20;;;18.42;;
8857;SDS011;4465;50.904;4.696;2024-02-28T08:12:40;53.65;;;19.45;;
8857;SDS011;4465;50.904;4.696;2024-02-28T08:15:09;47.35;;;17.50;;
8857;SDS011;4465;50.904;4.696;2024-02-28T08:17:36;60.25;;;19.85;;
8857;SDS011;4465;50.904;4.696;2024-02-28T08:20:09;47.40;;;16.58;;
8857;SDS011;4465;50.904;4.696;2024-02-28T08:22:38;39.58;;;14.27;;
8857;SDS011;4465;50.904;4.696;2024-02-28T08:25:05;48.35;;;18.27;;
8857;SDS011;4465;50.904;4.696;2024-02-28T08:27:31;56.10;;;18.98;;
8857;SDS011;4465;50.904;4.696;2024-02-28T08:29:59;60.40;;;19.35;;
8857;SDS011;4465;50.904;4.696;2024-02-28T08:32:27;56.45;;;18.60;;
8857;SDS011;4465;50.904;4.696;2024-02-28T08:34:56;56.28;;;17.65;;
8857;SDS011;4465;50.904;4.696;2024-02-28T08:37:24;47.88;;;16.65;;
8857;SDS011;4465;50.904;4.696;2024-02-28T08:39:52;55.40;;;18.35;;
8857;SDS011;4465;50.904;4.696;2024-02-28T08:42:22;53.45;;;18.38;;
8857;SDS011;4465;50.904;4.696;2024-02-28T08:44:52;57.28;;;19.30;;
8857;SDS011;4465;50.904;4.696;2024-02-28T08:47:23;51.33;;;18.05;;
8857;SDS011;4465;50.904;4.696;2024-02-28T08:49:52;55.83;;;18.80;;
8857;SDS011;4465;50.904;4.696;2024-02-28T08:52:19;60.15;;;18.65;;
8857;SDS011;4465;50.904;4.696;2024-02-28T08:54:45;55.85;;;17.05;;
8857;SDS011;4465;50.904;4.696;2024-02-28T08:57:12;57.65;;;18.45;;
8857;SDS011;4465;50.904;4.696;2024-02-28T08:59:38;55.65;;;17.48;;
8857;SDS011;4465;50.904;4.696;2024-02-28T09:02:05;54.13;;;19.02;;
8857;SDS011;4465;50.904;4.696;2024-02-28T09:04:35;51.42;;;17.77;;
8857;SDS011;4465;50.904;4.696;2024-02-28T09:07:01;46.60;;;15.35;;
8857;SDS011;4465;50.904;4.696;2024-02-28T09:09:26;49.38;;;17.00;;
8857;SDS011;4465;50.904;4.696;2024-02-28T09:11:57;49.50;;;16.05;;
8857;SDS011;4465;50.904;4.696;2024-02-28T09:14:30;53.20;;;17.05;;
8857;SDS011;4465;50.904;4.696;2024-02-28T09:16:56;44.40;;;16.48;;
8857;SDS011;4465;50.904;4.696;2024-02-28T09:19:29;46.03;;;14.27;;
8857;SDS011;4465;50.904;4.696;2024-02-28T09:21:58;40.13;;;14.60;;
8857;SDS011;4465;50.904;4.696;2024-02-28T09:24:24;44.92;;;15.02;;
8857;SDS011;4465;50.904;4.696;2024-02-28T09:26:51;46.65;;;15.60;;
8857;SDS011;4465;50.904;4.696;2024-02-28T09:29:19;38.90;;;13.95;;
8857;SDS011;4465;50.904;4.696;2024-02-28T09:31:45;46.15;;;14.68;;
8857;SDS011;4465;50.904;4.696;2024-02-28T09:34:16;37.55;;;13.45;;
8857;SDS011;4465;50.904;4.696;2024-02-28T09:36:42;42.35;;;14.65;;
8857;SDS011;4465;50.904;4.696;2024-02-28T09:39:14;49.38;;;13.95;;
8857;SDS011;4465;50.904;4.696;2024-02-28T09:41:42;44.13;;;14.85;;
8857;SDS011;4465;50.904;4.696;2024-02-28T09:44:11;37.42;;;13.93;;
8857;SDS011;4465;50.904;4.696;2024-02-28T09:46:39;38.22;;;14.35;;
8857;SDS011;4465;50.904;4.696;2024-02-28T09:49:08;41.13;;;13.48;;
8857;SDS011;4465;50.904;4.696;2024-02-28T09:51:35;48.15;;;14.93;;
8857;SDS011;4465;50.904;4.696;2024-02-28T09:54:05;36.22;;;13.23;;
8857;SDS011;4465;50.904;4.696;2024-02-28T09:56:31;39.28;;;13.07;;
8857;SDS011;4465;50.904;4.696;2024-02-28T09:59:00;39.78;;;13.38;;
8857;SDS011;4465;50.904;4.696;2024-02-28T10:01:28;36.97;;;13.98;;
8857;SDS011;4465;50.904;4.696;2024-02-28T10:03:56;37.35;;;12.93;;
8857;SDS011;4465;50.904;4.696;2024-02-28T10:06:24;29.60;;;11.35;;
8857;SDS011;4465;50.904;4.696;2024-02-28T10:08:50;40.95;;;12.93;;
8857;SDS011;4465;50.904;4.696;2024-02-28T10:11:18;44.22;;;13.57;;
8857;SDS011;4465;50.904;4.696;2024-02-28T10:13:46;41.28;;;13.45;;
8857;SDS011;4465;50.904;4.696;2024-02-28T10:16:13;45.45;;;12.95;;
8857;SDS011;4465;50.904;4.696;2024-02-28T10:18:42;29.88;;;11.45;;
8857;SDS011;4465;50.904;4.696;2024-02-28T10:21:09;32.88;;;11.07;;
8857;SDS011;4465;50.904;4.696;2024-02-28T10:23:37;33.25;;;10.27;;
8857;SDS011;4465;50.904;4.696;2024-02-28T10:26:03;28.45;;;10.57;;
8857;SDS011;4465;50.904;4.696;2024-02-28T10:28:36;27.92;;;10.43;;
8857;SDS011;4465;50.904;4.696;2024-02-28T10:31:03;27.92;;;10.05;;
8857;SDS011;4465;50.904;4.696;2024-02-28T10:33:32;28.25;;;9.75;;
8857;SDS011;4465;50.904;4.696;2024-02-28T10:36:02;24.42;;;8.82;;
8857;SDS011;4465;50.904;4.696;2024-02-28T10:38:30;27.33;;;9.68;;
8857;SDS011;4465;50.904;4.696;2024-02-28T10:40:59;25.67;;;9.60;;
8857;SDS011;4465;50.904;4.696;2024-02-28T10:43:28;26.52;;;9.50;;
8857;SDS011;4465;50.904;4.696;2024-02-28T10:45:56;24.30;;;9.10;;
8857;SDS011;4465;50.904;4.696;2024-02-28T10:48:26;25.90;;;8.52;;
8857;SDS011;4465;50.904;4.696;2024-02-28T10:50:55;26.40;;;8.60;;
8857;SDS011;4465;50.904;4.696;2024-02-28T10:53:22;24.20;;;7.80;;
8857;SDS011;4465;50.904;4.696;2024-02-28T10:56:02;22.67;;;8.68;;
8857;SDS011;4465;50.904;4.696;2024-02-28T10:58:34;19.55;;;7.53;;
8857;SDS011;4465;50.904;4.696;2024-02-28T11:01:03;19.63;;;8.00;;
8857;SDS011;4465;50.904;4.696;2024-02-28T11:03:33;20.35;;;8.70;;
8857;SDS011;4465;50.904;4.696;2024-02-28T11:05:59;20.48;;;8.07;;
8857;SDS011;4465;50.904;4.696;2024-02-28T11:08:27;24.33;;;7.72;;
8857;SDS011;4465;50.904;4.696;2024-02-28T11:10:58;21.92;;;8.48;;
8857;SDS011;4465;50.904;4.696;2024-02-28T11:13:27;23.38;;;7.70;;
8857;SDS011;4465;50.904;4.696;2024-02-28T11:15:54;13.95;;;6.78;;
8857;SDS011;4465;50.904;4.696;2024-02-28T11:18:23;16.98;;;7.32;;
8857;SDS011;4465;50.904;4.696;2024-02-28T11:20:48;16.83;;;7.00;;
8857;SDS011;4465;50.904;4.696;2024-02-28T11:23:19;17.25;;;6.82;;
8857;SDS011;4465;50.904;4.696;2024-02-28T11:25:45;18.17;;;7.25;;
8857;SDS011;4465;50.904;4.696;2024-02-28T11:28:15;24.05;;;6.93;;
8857;SDS011;4465;50.904;4.696;2024-02-28T11:30:41;16.40;;;7.10;;
8857;SDS011;4465;50.904;4.696;2024-02-28T11:33:07;18.33;;;6.80;;
8857;SDS011;4465;50.904;4.696;2024-02-28T11:35:34;17.88;;;6.53;;
8857;SDS011;4465;50.904;4.696;2024-02-28T11:38:00;15.13;;;6.75;;
8857;SDS011;4465;50.904;4.696;2024-02-28T11:40:26;16.30;;;6.93;;
8857;SDS011;4465;50.904;4.696;2024-02-28T11:42:53;17.88;;;7.07;;
8857;SDS011;4465;50.904;4.696;2024-02-28T11:45:20;21.83;;;7.78;;
8857;SDS011;4465;50.904;4.696;2024-02-28T11:47:46;18.90;;;7.25;;
8857;SDS011;4465;50.904;4.696;2024-02-28T11:50:13;19.67;;;6.85;;
8857;SDS011;4465;50.904;4.696;2024-02-28T11:52:44;18.17;;;8.07;;
8857;SDS011;4465;50.904;4.696;2024-02-28T11:55:10;18.40;;;7.68;;
8857;SDS011;4465;50.904;4.696;2024-02-28T11:57:39;28.95;;;8.48;;
8857;SDS011;4465;50.904;4.696;2024-02-28T12:00:07;21.25;;;7.90;;
8857;SDS011;4465;50.904;4.696;2024-02-28T12:02:42;16.48;;;7.25;;
8857;SDS011;4465;50.904;4.696;2024-02-28T12:05:10;38.72;;;8.70;;
8857;SDS011;4465;50.904;4.696;2024-02-28T12:07:38;21.85;;;8.23;;
8857;SDS011;4465;50.904;4.696;2024-02-28T12:10:07;20.02;;;8.40;;
8857;SDS011;4465;50.904;4.696;2024-02-28T12:12:34;23.60;;;9.10;;
8857;SDS011;4465;50.904;4.696;2024-02-28T12:15:05;19.65;;;8.35;;
8857;SDS011;4465;50.904;4.696;2024-02-28T12:17:31;18.60;;;7.68;;
8857;SDS011;4465;50.904;4.696;2024-02-28T12:19:59;18.60;;;8.50;;
8857;SDS011;4465;50.904;4.696;2024-02-28T12:22:26;20.35;;;8.13;;
8857;SDS011;4465;50.904;4.696;2024-02-28T12:24:54;26.67;;;9.10;;
8857;SDS011;4465;50.904;4.696;2024-02-28T12:27:20;20.48;;;9.52;;
8857;SDS011;4465;50.904;4.696;2024-02-28T12:29:46;22.20;;;8.45;;
8857;SDS011;4465;50.904;4.696;2024-02-28T12:32:12;26.48;;;10.10;;
8857;SDS011;4465;50.904;4.696;2024-02-28T12:34:42;23.27;;;8.90;;
8857;SDS011;4465;50.904;4.696;2024-02-28T12:37:08;28.27;;;10.27;;
8857;SDS011;4465;50.904;4.696;2024-02-28T12:39:34;24.63;;;9.23;;
8857;SDS011;4465;50.904;4.696;2024-02-28T12:42:02;24.60;;;9.45;;
8857;SDS011;4465;50.904;4.696;2024-02-28T12:44:31;18.20;;;8.75;;
8857;SDS011;4465;50.904;4.696;2024-02-28T12:46:59;20.35;;;8.18;;
8857;SDS011;4465;50.904;4.696;2024-02-28T12:49:27;23.55;;;8.63;;
8857;SDS011;4465;50.904;4.696;2024-02-28T12:51:53;21.13;;;8.02;;
8857;SDS011;4465;50.904;4.696;2024-02-28T12:54:22;20.15;;;8.48;;
8857;SDS011;4465;50.904;4.696;2024-02-28T12:56:48;21.00;;;8.98;;
8857;SDS011;4465;50.904;4.696;2024-02-28T12:59:14;19.23;;;7.57;;
8857;SDS011;4465;50.904;4.696;2024-02-28T13:01:42;16.50;;;7.40;;
8857;SDS011;4465;50.904;4.696;2024-02-28T13:04:08;21.67;;;8.02;;
8857;SDS011;4465;50.904;4.696;2024-02-28T13:06:34;14.00;;;6.80;;
8857;SDS011;4465;50.904;4.696;2024-02-28T13:09:02;16.80;;;6.88;;
8857;SDS011;4465;50.904;4.696;2024-02-28T13:11:28;14.38;;;7.30;;
8857;SDS011;4465;50.904;4.696;2024-02-28T13:13:57;16.90;;;7.60;;
8857;SDS011;4465;50.904;4.696;2024-02-28T13:16:28;12.68;;;6.22;;
8857;SDS011;4465;50.904;4.696;2024-02-28T13:18:54;16.75;;;6.88;;
8857;SDS011;4465;50.904;4.696;2024-02-28T13:21:20;12.13;;;5.70;;
8857;SDS011;4465;50.904;4.696;2024-02-28T13:23:46;10.07;;;5.30;;
8857;SDS011;4465;50.904;4.696;2024-02-28T13:26:16;14.15;;;5.63;;
8857;SDS011;4465;50.904;4.696;2024-02-28T13:28:46;15.07;;;4.97;;
8857;SDS011;4465;50.904;4.696;2024-02-28T13:31:12;11.57;;;6.10;;
8857;SDS011;4465;50.904;4.696;2024-02-28T13:33:38;13.57;;;5.57;;
8857;SDS011;4465;50.904;4.696;2024-02-28T13:36:06;11.23;;;5.68;;
8857;SDS011;4465;50.904;4.696;2024-02-28T13:38:33;9.02;;;4.80;;
8857;SDS011;4465;50.904;4.696;2024-02-28T13:41:01;9.55;;;4.82;;
8857;SDS011;4465;50.904;4.696;2024-02-28T13:43:30;9.63;;;4.50;;
8857;SDS011;4465;50.904;4.696;2024-02-28T13:45:56;8.27;;;3.92;;
8857;SDS011;4465;50.904;4.696;2024-02-28T13:48:27;10.55;;;4.28;;
8857;SDS011;4465;50.904;4.696;2024-02-28T13:50:54;13.68;;;4.05;;
8857;SDS011;4465;50.904;4.696;2024-02-28T13:53:24;7.43;;;3.33;;
8857;SDS011;4465;50.904;4.696;2024-02-28T13:55:52;5.70;;;2.92;;
8857;SDS011;4465;50.904;4.696;2024-02-28T13:58:20;5.65;;;3.00;;
8857;SDS011;4465;50.904;4.696;2024-02-28T14:00:47;8.07;;;2.85;;
8857;SDS011;4465;50.904;4.696;2024-02-28T14:03:13;6.88;;;3.05;;
8857;SDS011;4465;50.904;4.696;2024-02-28T14:05:39;5.72;;;2.90;;
8857;SDS011;4465;50.904;4.696;2024-02-28T14:08:05;5.82;;;3.03;;
8857;SDS011;4465;50.904;4.696;2024-02-28T14:10:35;7.43;;;3.30;;
8857;SDS011;4465;50.904;4.696;2024-02-28T14:13:02;5.63;;;3.07;;
8857;SDS011;4465;50.904;4.696;2024-02-28T14:15:28;5.15;;;3.00;;
8857;SDS011;4465;50.904;4.696;2024-02-28T14:17:54;6.97;;;2.88;;
8857;SDS011;4465;50.904;4.696;2024-02-28T14:20:23;8.30;;;3.78;;
8857;SDS011;4465;50.904;4.696;2024-02-28T14:22:51;5.97;;;3.03;;
8857;SDS011;4465;50.904;4.696;2024-02-28T14:25:19;6.97;;;3.00;;
8857;SDS011;4465;50.904;4.696;2024-02-28T14:27:46;6.35;;;3.40;;
8857;SDS011;4465;50.904;4.696;2024-02-28T14:30:13;7.33;;;3.50;;
8857;SDS011;4465;50.904;4.696;2024-02-28T14:32:44;5.90;;;3.22;;
8857;SDS011;4465;50.904;4.696;2024-02-28T14:35:16;7.43;;;2.97;;
8857;SDS011;4465;50.904;4.696;2024-02-28T14:37:42;8.13;;;3.22;;
8857;SDS011;4465;50.904;4.696;2024-02-28T14:40:09;6.40;;;3.03;;
8857;SDS011;4465;50.904;4.696;2024-02-28T14:42:38;6.20;;;3.13;;
8857;SDS011;4465;50.904;4.696;2024-02-28T14:45:07;6.10;;;3.60;;
8857;SDS011;4465;50.904;4.696;2024-02-28T14:47:37;7.10;;;3.05;;
8857;SDS011;4465;50.904;4.696;2024-02-28T14:50:04;10.38;;;3.65;;
8857;SDS011;4465;50.904;4.696;2024-02-28T14:52:30;7.93;;;3.80;;
8857;SDS011;4465;50.904;4.696;2024-02-28T14:54:56;9.05;;;3.92;;